Tuesday, May 21, 2019, 10:48 PM EDT
Back to Local

KGFL, Floyd Bennett Memorial Airport

Location: Queensbury, NY, United States Lat: 43.333
Local Time: 10:48 PM EDT ( 2:48 GMT) Lon: -73.617
Time Zone: US/Eastern Elev: 328 ft

Show me the last for .
Show Decoded

2019-05-21 21:53 METAR KGFL 220153Z AUTO 01004KT 10SM CLR 13/00 A3006 RMK AO2 SLP182 T01330000 =
2019-05-21 20:53 METAR KGFL 220053Z AUTO 34012G18KT 10SM CLR 16/00 A3004 RMK AO2 SLP173 T01560000
                 =
2019-05-21 19:53 METAR KGFL 212353Z AUTO 34010G23KT 10SM CLR 16/M01 A3000 RMK AO2 PK WND
                 33027/2313 SLP161 T01611006 10183 20161 53020 =
2019-05-21 18:53 METAR KGFL 212253Z AUTO 33016G28KT 10SM CLR 17/01 A2996 RMK AO2 PK WND
                 33031/2214 SLP147 T01720006 =
2019-05-21 17:53 METAR KGFL 212153Z AUTO 32022G32KT 10SM CLR 17/01 A2995 RMK AO2 PK WND
                 31032/2152 SLP144 T01720006 =
2019-05-21 16:53 METAR KGFL 212053Z AUTO 35015G26KT 10SM FEW080 17/01 A2994 RMK AO2 PK WND
                 31032/2033 SLP141 T01720006 53009 =
2019-05-21 15:53 METAR KGFL 211953Z AUTO 32021G30KT 10SM CLR 18/02 A2991 RMK AO2 PK WND
                 33032/1943 SLP130 T01830022 =
2019-05-21 14:53 METAR KGFL 211853Z AUTO 30017G25KT 10SM BKN070 BKN080 17/03 A2990 RMK AO2 SLP126
                 T01720028 =
2019-05-21 13:53 METAR KGFL 211753Z AUTO 34014G28KT 10SM SCT060 16/02 A2992 RMK AO2 PK WND
                 33028/1748 SLP131 T01610017 10167 20117 51009 =
2019-05-21 12:53 METAR KGFL 211653Z AUTO 29011G24KT 10SM BKN055 BKN070 16/03 A2990 RMK AO2 PK WND
                 31027/1558 SLP128 T01560033 =
2019-05-21 11:53 METAR KGFL 211553Z AUTO 31016G23KT 10SM BKN050 BKN060 15/03 A2990 RMK AO2 PK WND
                 30027/1506 SLP128 T01500033 =
2019-05-21 10:53 METAR KGFL 211453Z AUTO 32010G18KT 10SM BKN055 15/03 A2989 RMK AO2 SLP122
                 T01500033 53000 =
2019-05-21 09:53 METAR KGFL 211353Z AUTO 31012G22KT 280V350 10SM FEW045 13/03 A2987 RMK AO2
                 SLP115 T01330028 =
2019-05-21 08:53 METAR KGFL 211253Z AUTO 27006KT 10SM OVC044 12/03 A2988 RMK AO2 SLP120 T01170028
                 =
2019-05-21 07:53 METAR KGFL 211153Z AUTO 30005KT 10SM OVC039 12/03 A2989 RMK AO2 SLP121 70007
                 T01170033 10128 20106 53016 =
2019-05-21 06:53 METAR KGFL 211053Z AUTO 00000KT 10SM SCT041 OVC050 11/04 A2987 RMK AO2 SLP116
                 T01060039 =
2019-05-21 05:53 METAR KGFL 210953Z AUTO 33006KT 10SM BKN039 OVC047 11/03 A2985 RMK AO2 SLP110
                 T01110033 =
2019-05-21 04:53 METAR KGFL 210853Z AUTO 27006KT 10SM OVC039 11/04 A2984 RMK AO2 SLP104 T01110044
                 53009 =
2019-05-21 03:53 METAR KGFL 210753Z AUTO 26005KT 10SM SCT044 OVC075 12/04 A2981 RMK AO2 SLP093
                 T01170039 =
2019-05-21 02:53 METAR KGFL 210653Z AUTO 26006KT 10SM OVC047 12/04 A2981 RMK AO2 SLP094 T01220044
                 =
2019-05-21 01:53 METAR KGFL 210553Z AUTO 27008G15KT 10SM BKN042 13/04 A2981 RMK AO2 SLP096
                 T01280044 10200 20128 51001 =
2019-05-21 00:53 METAR KGFL 210453Z AUTO VRB06KT 10SM BKN043 14/05 A2981 RMK AO2 SLP094 T01390050
                 402610139 =
2019-05-20 23:53 METAR KGFL 210353Z AUTO 28006KT 10SM FEW046 14/04 A2982 RMK AO2 SLP097 T01440044
                 =
2019-05-20 22:53 METAR KGFL 210253Z AUTO 23007KT 10SM BKN048 OVC055 16/06 A2981 RMK AO2 SLP093
                 T01560061 51027 =

Support USWX by starting your Amazon purchase here.